createdAt,value
2022-12-09T00:01:20.698Z,-1.42
2022-12-09T00:03:48.777Z,-1.45
2022-12-09T00:06:25.537Z,-1.54
2022-12-09T00:08:53.719Z,-1.55
2022-12-09T00:11:23.827Z,-1.45
2022-12-09T00:13:59.741Z,-1.33
2022-12-09T00:16:29.557Z,-1.16
2022-12-09T00:18:57.862Z,-1.11
2022-12-09T00:21:32.349Z,-1.33
2022-12-09T00:24:02.421Z,-1.26
2022-12-09T00:26:32.490Z,-1.05
2022-12-09T00:29:00.042Z,-1.05
2022-12-09T00:31:33.194Z,-1.05
2022-12-09T00:34:02.014Z,-0.97
2022-12-09T00:36:30.166Z,-1.06
2022-12-09T00:38:59.086Z,-1.20
2022-12-09T00:41:27.825Z,-1.16
2022-12-09T00:43:57.951Z,-1.33
2022-12-09T00:46:26.544Z,-1.18
2022-12-09T00:49:01.986Z,-1.14
2022-12-09T00:51:29.310Z,-1.04
2022-12-09T00:53:58.995Z,-1.36
2022-12-09T00:56:31.855Z,-1.43
2022-12-09T00:58:59.927Z,-1.35
2022-12-09T01:01:28.635Z,-1.33
2022-12-09T01:03:56.889Z,-1.19
2022-12-09T01:06:27.046Z,-1.10
2022-12-09T01:08:55.082Z,-1.22
2022-12-09T01:11:27.859Z,-1.23
2022-12-09T01:13:58.333Z,-1.03
2022-12-09T01:16:30.256Z,-0.90
2022-12-09T01:19:00.425Z,-0.92
2022-12-09T01:21:29.594Z,-0.85
2022-12-09T01:23:57.480Z,-0.85
2022-12-09T01:26:25.324Z,-1.00
2022-12-09T01:28:55.434Z,-0.89
2022-12-09T01:31:25.328Z,-0.64
2022-12-09T01:33:55.502Z,-0.56
2022-12-09T01:36:26.800Z,-0.52
2022-12-09T01:38:55.197Z,-0.51
2022-12-09T01:41:22.770Z,-0.43
2022-12-09T01:44:08.835Z,-0.48
2022-12-09T01:46:36.047Z,-0.60
2022-12-09T01:49:03.848Z,-0.70
2022-12-09T01:51:32.351Z,-0.90
2022-12-09T01:53:59.913Z,-0.99
2022-12-09T01:56:34.984Z,-0.97
2022-12-09T01:59:11.337Z,-1.05
2022-12-09T02:01:41.706Z,-1.17
2022-12-09T02:04:09.151Z,-1.18
2022-12-09T02:06:38.570Z,-1.16
2022-12-09T02:09:06.637Z,-1.21
2022-12-09T02:12:02.600Z,-1.18
2022-12-09T02:14:54.916Z,-1.03
2022-12-09T02:17:39.966Z,-0.65
2022-12-09T02:20:44.231Z,-0.80
2022-12-09T02:23:39.955Z,-0.89
2022-12-09T02:26:17.430Z,-1.03
2022-12-09T02:29:04.530Z,-1.14
2022-12-09T02:31:43.745Z,-1.28
2022-12-09T02:34:33.704Z,-1.40
2022-12-09T02:37:16.488Z,-1.18
2022-12-09T02:39:52.530Z,-1.29
2022-12-09T02:42:24.842Z,-1.27
2022-12-09T02:44:53.245Z,-1.42
2022-12-09T02:47:24.710Z,-1.48
2022-12-09T02:49:58.871Z,-1.44
2022-12-09T02:52:28.263Z,-1.52
2022-12-09T02:54:56.096Z,-1.63
2022-12-09T02:57:26.997Z,-1.63
2022-12-09T02:59:54.711Z,-1.67
2022-12-09T03:02:31.794Z,-1.25
2022-12-09T03:05:27.442Z,-1.05
2022-12-09T03:08:13.843Z,-1.20
2022-12-09T03:11:08.965Z,-1.44
2022-12-09T03:13:40.522Z,-1.58
2022-12-09T03:16:33.566Z,-1.46
2022-12-09T03:19:11.417Z,-1.73
2022-12-09T03:21:44.274Z,-1.55
2022-12-09T03:24:15.883Z,-1.86
2022-12-09T03:26:46.120Z,-1.74
2022-12-09T03:29:19.932Z,-2.01
2022-12-09T03:31:49.243Z,-1.96
2022-12-09T03:34:20.590Z,-2.19
2022-12-09T03:36:52.114Z,-2.24
2022-12-09T03:39:25.694Z,-2.08
2022-12-09T03:41:58.401Z,-2.02
2022-12-09T03:44:40.807Z,-1.97
2022-12-09T03:47:09.922Z,-1.94
2022-12-09T03:49:39.771Z,-1.93
2022-12-09T03:52:25.945Z,-2.03
2022-12-09T03:54:59.667Z,-2.03
2022-12-09T03:57:28.054Z,-2.12
2022-12-09T04:00:01.680Z,-2.19
2022-12-09T04:02:29.613Z,-2.16
2022-12-09T04:04:57.636Z,-1.92
2022-12-09T04:07:25.477Z,-1.96
2022-12-09T04:09:52.888Z,-2.05
2022-12-09T04:12:27.282Z,-2.44
2022-12-09T04:14:54.900Z,-2.56
2022-12-09T04:17:24.430Z,-2.24
2022-12-09T04:19:52.362Z,-2.44
2022-12-09T04:22:21.279Z,-2.59
2022-12-09T04:24:48.627Z,-2.49
2022-12-09T04:27:16.345Z,-2.35
2022-12-09T04:29:43.517Z,-2.37
2022-12-09T04:32:11.147Z,-2.30
2022-12-09T04:34:39.493Z,-2.09
2022-12-09T04:37:06.898Z,-1.94
2022-12-09T04:39:34.448Z,-1.92
2022-12-09T04:42:08.840Z,-1.92
2022-12-09T04:44:37.992Z,-1.98
2022-12-09T04:47:05.920Z,-1.84
2022-12-09T04:49:33.587Z,-1.80
2022-12-09T04:52:01.907Z,-1.97
2022-12-09T04:54:29.529Z,-2.18
2022-12-09T04:56:57.044Z,-2.05
2022-12-09T04:59:24.447Z,-1.69
2022-12-09T05:01:51.754Z,-1.60
2022-12-09T05:04:19.651Z,-1.55
2022-12-09T05:06:48.264Z,-1.71
2022-12-09T05:09:16.782Z,-1.64
2022-12-09T05:11:45.326Z,-1.69
2022-12-09T05:14:14.929Z,-1.58
2022-12-09T05:16:42.260Z,-1.51
2022-12-09T05:19:11.334Z,-1.50
2022-12-09T05:21:38.586Z,-1.42
2022-12-09T05:24:06.469Z,-1.39
2022-12-09T05:26:33.529Z,-1.38
2022-12-09T05:29:01.329Z,-1.35
2022-12-09T05:31:29.128Z,-1.23
2022-12-09T05:33:56.972Z,-1.12
2022-12-09T05:36:26.102Z,-1.21
2022-12-09T05:38:55.344Z,-1.15
2022-12-09T05:41:24.397Z,-1.02
2022-12-09T05:43:54.041Z,-1.09
2022-12-09T05:46:21.625Z,-0.97
2022-12-09T05:48:49.234Z,-0.75
2022-12-09T05:51:29.306Z,-0.86
2022-12-09T05:54:00.415Z,-0.89
2022-12-09T05:56:28.412Z,-0.82
2022-12-09T05:58:58.917Z,-0.82
2022-12-09T06:01:28.568Z,-0.85
2022-12-09T06:03:56.475Z,-0.86
2022-12-09T06:06:31.533Z,-0.85
2022-12-09T06:09:01.713Z,-0.81
2022-12-09T06:11:29.516Z,-0.64
2022-12-09T06:13:57.655Z,-0.61
2022-12-09T06:16:26.529Z,-0.59
2022-12-09T06:18:56.863Z,-0.64
2022-12-09T06:21:25.496Z,-0.71
2022-12-09T06:23:55.548Z,-0.86
2022-12-09T06:26:28.902Z,-0.88
2022-12-09T06:28:58.472Z,-0.89
2022-12-09T06:31:29.109Z,-0.91
2022-12-09T06:33:58.412Z,-0.85
2022-12-09T06:36:29.146Z,-0.77
2022-12-09T06:39:00.395Z,-0.69
2022-12-09T06:41:32.116Z,-0.88
2022-12-09T06:44:00.778Z,-0.95
2022-12-09T06:46:29.431Z,-1.12
2022-12-09T06:48:57.496Z,-1.26
2022-12-09T06:51:26.251Z,-1.27
2022-12-09T06:53:54.857Z,-1.27
2022-12-09T06:56:23.451Z,-1.11
2022-12-09T06:58:51.345Z,-1.05
2022-12-09T07:01:22.776Z,-1.05
2022-12-09T07:03:53.569Z,-1.12
2022-12-09T07:06:36.233Z,-1.26
2022-12-09T07:09:08.137Z,-1.30
2022-12-09T07:11:37.836Z,-1.38
2022-12-09T07:14:05.509Z,-1.08
2022-12-09T07:16:33.686Z,-0.87
2022-12-09T07:19:02.056Z,-0.92
2022-12-09T07:21:30.440Z,-1.11
2022-12-09T07:24:02.204Z,-1.27
2022-12-09T07:26:33.763Z,-1.31
2022-12-09T07:29:05.245Z,-1.38
2022-12-09T07:31:34.638Z,-1.27
2022-12-09T07:34:02.295Z,-1.26
2022-12-09T07:36:32.910Z,-1.25
2022-12-09T07:39:10.885Z,-1.13
2022-12-09T07:41:38.223Z,-1.11
2022-12-09T07:44:05.823Z,-0.82
2022-12-09T07:46:34.006Z,-0.78
2022-12-09T07:49:03.692Z,-0.68
2022-12-09T07:51:38.889Z,-0.49
2022-12-09T07:54:06.298Z,-0.49
2022-12-09T07:56:33.800Z,-0.70
2022-12-09T07:59:01.030Z,-0.72
2022-12-09T08:01:30.457Z,-0.47
2022-12-09T08:03:58.705Z,-0.51
2022-12-09T08:06:30.380Z,-0.61
2022-12-09T08:09:03.074Z,-0.47
2022-12-09T08:11:32.919Z,-0.47
2022-12-09T08:14:10.607Z,-0.46
2022-12-09T08:16:42.449Z,-0.28
2022-12-09T08:19:12.563Z,-0.18
2022-12-09T08:21:41.850Z,-0.28
2022-12-09T08:24:11.815Z,-0.30
2022-12-09T08:26:40.188Z,-0.25
2022-12-09T08:29:13.048Z,-0.22
2022-12-09T08:31:42.490Z,-0.15
2022-12-09T08:34:16.311Z,-0.07
2022-12-09T08:36:44.353Z,-0.01
2022-12-09T08:39:14.033Z,0.28
2022-12-09T08:41:43.136Z,0.52
2022-12-09T08:44:15.543Z,0.62
2022-12-09T08:46:45.636Z,0.90
2022-12-09T08:49:14.429Z,0.85
2022-12-09T08:51:41.992Z,0.69
2022-12-09T08:54:15.899Z,0.78
2022-12-09T08:56:51.505Z,0.91
2022-12-09T08:59:19.368Z,1.12
2022-12-09T09:01:47.520Z,1.17
2022-12-09T09:04:17.502Z,1.43
2022-12-09T09:06:48.642Z,1.65
2022-12-09T09:09:17.630Z,1.92
2022-12-09T09:11:45.890Z,2.10
2022-12-09T09:14:14.953Z,2.22
2022-12-09T09:16:45.160Z,2.14
2022-12-09T09:19:19.355Z,2.05
2022-12-09T09:21:47.218Z,1.83
2022-12-09T09:24:17.432Z,1.87
2022-12-09T09:26:46.311Z,2.00
2022-12-09T09:29:16.647Z,2.08
2022-12-09T09:31:56.167Z,2.24
2022-12-09T09:34:25.357Z,2.51
2022-12-09T09:36:54.138Z,2.91
2022-12-09T09:39:22.371Z,3.77
2022-12-09T09:42:07.372Z,4.90
2022-12-09T09:44:45.488Z,5.28
2022-12-09T09:47:18.217Z,5.29
2022-12-09T09:50:07.761Z,5.07
2022-12-09T09:52:42.739Z,4.84
2022-12-09T09:55:19.931Z,4.76
2022-12-09T09:58:06.640Z,4.77
2022-12-09T10:00:44.517Z,4.87
2022-12-09T10:03:35.242Z,4.83
2022-12-09T10:06:13.904Z,4.78
2022-12-09T10:09:11.596Z,4.63
2022-12-09T10:11:53.248Z,4.49
2022-12-09T10:14:44.600Z,4.39
2022-12-09T10:17:29.394Z,4.23
2022-12-09T10:20:10.624Z,3.90
2022-12-09T10:22:47.361Z,3.65
2022-12-09T10:25:30.184Z,3.39
2022-12-09T10:28:04.906Z,3.34
2022-12-09T10:30:39.904Z,3.24
2022-12-09T10:33:14.793Z,3.11
2022-12-09T10:35:44.128Z,3.10
2022-12-09T10:38:14.740Z,3.05
2022-12-09T10:40:50.493Z,3.07
2022-12-09T10:43:37.485Z,3.05
2022-12-09T10:46:18.412Z,3.03
2022-12-09T10:48:50.763Z,3.11
2022-12-09T10:51:30.385Z,3.21
2022-12-09T10:54:10.506Z,3.37
2022-12-09T10:56:40.697Z,3.56
2022-12-09T10:59:26.481Z,3.75
2022-12-09T11:02:10.916Z,3.97
2022-12-09T11:04:41.976Z,4.15
2022-12-09T11:07:12.340Z,4.34
2022-12-09T11:09:52.560Z,4.48
2022-12-09T11:12:40.629Z,4.67
2022-12-09T11:15:29.439Z,4.85
2022-12-09T11:18:05.208Z,4.99
2022-12-09T11:20:36.649Z,5.23
2022-12-09T11:23:07.462Z,5.38
2022-12-09T11:25:37.713Z,5.73
2022-12-09T11:28:17.409Z,6.04
2022-12-09T11:34:04.439Z,6.53
2022-12-09T11:36:43.957Z,6.55
2022-12-09T11:39:26.356Z,6.51
2022-12-09T11:42:18.871Z,6.44
2022-12-09T11:45:06.538Z,6.49
2022-12-09T11:48:21.092Z,6.47
2022-12-09T11:50:37.705Z,6.54
2022-12-09T11:53:11.351Z,6.71
2022-12-09T11:55:50.262Z,6.78
2022-12-09T11:58:38.687Z,6.75
2022-12-09T12:01:30.439Z,6.71
2022-12-09T12:04:02.013Z,6.59
2022-12-09T12:06:44.757Z,6.42
2022-12-09T12:09:24.143Z,6.21
2022-12-09T12:12:14.078Z,6.01
2022-12-09T12:14:43.738Z,5.77
2022-12-09T12:17:26.169Z,5.46
2022-12-09T12:19:56.620Z,5.19
2022-12-09T12:22:38.531Z,5.07
2022-12-09T12:25:35.764Z,4.91
2022-12-09T12:28:08.695Z,4.86
2022-12-09T12:30:48.378Z,4.76
2022-12-09T12:36:44.930Z,4.76
2022-12-09T12:39:30.679Z,4.76
2022-12-09T12:42:34.616Z,4.65
2022-12-09T12:45:32.546Z,4.54
2022-12-09T12:48:09.745Z,4.46
2022-12-09T12:50:52.516Z,4.35
2022-12-09T12:53:33.638Z,4.30
2022-12-09T12:56:09.895Z,4.17
2022-12-09T12:59:08.585Z,4.15
2022-12-09T13:02:00.879Z,4.02
2022-12-09T13:04:44.344Z,3.95
2022-12-09T13:07:29.737Z,3.85
2022-12-09T13:10:15.638Z,3.86
2022-12-09T13:12:57.271Z,3.83
2022-12-09T13:15:32.643Z,3.81
2022-12-09T13:18:24.716Z,3.78
2022-12-09T13:20:53.602Z,3.68
2022-12-09T13:23:48.370Z,3.65
2022-12-09T13:26:37.643Z,3.61
2022-12-09T13:29:10.784Z,3.56
2022-12-09T13:31:46.092Z,3.54
2022-12-09T13:34:32.238Z,3.55
2022-12-09T13:36:59.394Z,3.60
2022-12-09T13:39:42.776Z,3.57
2022-12-09T13:42:47.215Z,3.39
2022-12-09T13:45:20.646Z,3.35
2022-12-09T13:47:48.106Z,3.24
2022-12-09T13:50:31.966Z,3.12
2022-12-09T13:53:02.726Z,3.13
2022-12-09T13:55:51.686Z,3.06
2022-12-09T13:58:30.119Z,2.98
2022-12-09T14:01:15.861Z,3.01
2022-12-09T14:04:14.068Z,2.95
2022-12-09T14:06:56.697Z,2.93
2022-12-09T14:09:33.486Z,2.91
2022-12-09T14:12:06.712Z,2.86
2022-12-09T14:14:34.696Z,2.93
2022-12-09T14:17:16.456Z,2.88
2022-12-09T14:19:43.462Z,2.90
2022-12-09T14:22:20.074Z,2.86
2022-12-09T14:24:53.144Z,2.85
2022-12-09T14:27:38.627Z,2.92
2022-12-09T14:30:34.750Z,2.83
2022-12-09T14:33:03.039Z,2.89
2022-12-09T14:35:42.341Z,2.79
2022-12-09T14:38:29.885Z,2.80
2022-12-09T14:41:21.347Z,2.80
2022-12-09T14:44:30.667Z,2.79
2022-12-09T14:47:20.019Z,2.76
2022-12-09T14:49:49.743Z,2.72
2022-12-09T14:52:35.692Z,2.71
2022-12-09T14:55:07.218Z,2.75
2022-12-09T14:57:41.773Z,2.69
2022-12-09T15:00:33.165Z,2.65
2022-12-09T15:06:05.387Z,2.70
2022-12-09T15:08:41.595Z,2.55
2022-12-09T15:11:10.296Z,2.52
2022-12-09T15:13:41.097Z,2.51
2022-12-09T15:16:14.489Z,2.44
2022-12-09T15:18:44.249Z,2.55
2022-12-09T15:21:22.841Z,2.41
2022-12-09T15:23:52.358Z,2.45
2022-12-09T15:26:26.201Z,2.53
2022-12-09T15:28:59.899Z,2.60
2022-12-09T15:31:30.220Z,2.59
2022-12-09T15:34:02.161Z,2.55
2022-12-09T15:36:36.775Z,2.57
2022-12-09T15:39:25.936Z,2.55
2022-12-09T15:42:07.974Z,2.51
2022-12-09T15:45:07.788Z,2.55
2022-12-09T15:47:42.526Z,2.41
2022-12-09T15:50:31.128Z,2.42
2022-12-09T15:53:20.486Z,2.39
2022-12-09T15:56:06.440Z,2.28
2022-12-09T15:58:39.132Z,2.26
2022-12-09T16:01:08.396Z,2.29
2022-12-09T16:03:37.415Z,2.25
2022-12-09T16:06:08.978Z,2.25
2022-12-09T16:08:43.798Z,2.47
2022-12-09T16:11:12.897Z,2.49
2022-12-09T16:13:59.781Z,2.34
2022-12-09T16:16:39.809Z,2.39
2022-12-09T16:19:24.985Z,2.30
2022-12-09T16:21:59.361Z,2.22
2022-12-09T16:24:51.112Z,2.33
2022-12-09T16:27:27.301Z,2.48
2022-12-09T16:30:00.452Z,2.39
2022-12-09T16:32:35.080Z,2.37
2022-12-09T16:35:12.002Z,2.39
2022-12-09T16:38:04.234Z,2.46
2022-12-09T16:40:33.363Z,2.39
2022-12-09T16:43:22.207Z,2.33
2022-12-09T16:46:21.458Z,2.36
2022-12-09T16:48:54.716Z,2.36
2022-12-09T16:51:25.770Z,2.38
2022-12-09T16:53:54.605Z,2.29
2022-12-09T16:56:29.904Z,2.31
2022-12-09T16:59:00.543Z,2.37
2022-12-09T17:01:35.640Z,2.25
2022-12-09T17:04:15.387Z,2.21
2022-12-09T17:06:43.939Z,2.13
2022-12-09T17:09:14.430Z,2.28
2022-12-09T17:11:48.295Z,2.25
2022-12-09T17:14:18.956Z,2.16
2022-12-09T17:16:47.102Z,2.10
2022-12-09T17:19:21.679Z,2.11
2022-12-09T17:21:50.402Z,2.04
2022-12-09T17:24:21.762Z,2.05
2022-12-09T17:26:50.111Z,2.08
2022-12-09T17:29:25.421Z,2.01
2022-12-09T17:31:55.561Z,2.01
2022-12-09T17:34:23.463Z,1.97
2022-12-09T17:36:51.706Z,2.05
2022-12-09T17:39:21.036Z,2.05
2022-12-09T17:41:50.132Z,2.00
2022-12-09T17:44:18.846Z,2.04
2022-12-09T17:46:47.161Z,1.98
2022-12-09T17:49:18.443Z,1.94
2022-12-09T17:51:46.290Z,1.97
2022-12-09T17:54:13.946Z,2.00
2022-12-09T17:56:44.231Z,2.01
2022-12-09T17:59:14.007Z,1.99
2022-12-09T18:01:47.491Z,1.97
2022-12-09T18:04:16.993Z,2.02
2022-12-09T18:06:47.247Z,1.99
2022-12-09T18:09:24.269Z,1.92
2022-12-09T18:11:52.416Z,1.94
2022-12-09T18:14:20.237Z,1.84
2022-12-09T18:16:49.752Z,1.80
2022-12-09T18:19:20.940Z,1.90
2022-12-09T18:21:48.183Z,2.01
2022-12-09T18:24:15.738Z,1.90
2022-12-09T18:26:44.470Z,1.89
2022-12-09T18:29:14.871Z,1.79
2022-12-09T18:31:46.258Z,1.76
2022-12-09T18:34:16.133Z,1.83
2022-12-09T18:36:43.837Z,1.85
2022-12-09T18:39:11.318Z,1.87
2022-12-09T18:41:41.399Z,1.83
2022-12-09T18:44:09.403Z,1.86
2022-12-09T18:46:49.410Z,1.79
2022-12-09T18:49:24.403Z,1.83
2022-12-09T18:51:53.525Z,1.81
2022-12-09T18:54:27.995Z,1.76
2022-12-09T18:57:04.607Z,1.69
2022-12-09T18:59:38.060Z,1.65
2022-12-09T19:02:07.267Z,1.60
2022-12-09T19:04:38.003Z,1.62
2022-12-09T19:07:07.120Z,1.58
2022-12-09T19:09:37.384Z,1.48
2022-12-09T19:12:45.278Z,1.43
2022-12-09T19:14:58.154Z,1.45
2022-12-09T19:17:27.036Z,1.31
2022-12-09T19:19:55.119Z,1.27
2022-12-09T19:22:23.686Z,1.15
2022-12-09T19:24:58.322Z,1.32
2022-12-09T19:27:27.227Z,1.08
2022-12-09T19:29:55.645Z,1.05
2022-12-09T19:32:51.385Z,1.21
2022-12-09T19:35:12.125Z,1.21
2022-12-09T19:37:40.080Z,1.20
2022-12-09T19:40:10.245Z,1.23
2022-12-09T19:42:52.326Z,1.22
2022-12-09T19:45:21.029Z,1.11
2022-12-09T19:47:50.294Z,1.10
2022-12-09T19:50:18.078Z,1.26
2022-12-09T19:52:47.914Z,1.18
2022-12-09T19:55:16.185Z,1.13
2022-12-09T19:57:44.384Z,1.07
2022-12-09T20:00:12.862Z,0.98
2022-12-09T20:02:43.177Z,0.92
2022-12-09T20:05:11.330Z,0.92
2022-12-09T20:07:40.075Z,1.05
2022-12-09T20:10:08.655Z,0.98
2022-12-09T20:12:39.507Z,1.09
2022-12-09T20:15:08.519Z,1.17
2022-12-09T20:17:39.027Z,1.04
2022-12-09T20:20:08.230Z,0.99
2022-12-09T20:22:36.151Z,1.00
2022-12-09T20:25:04.491Z,1.03
2022-12-09T20:27:37.208Z,0.88
2022-12-09T20:30:08.989Z,1.09
2022-12-09T20:32:37.197Z,1.01
2022-12-09T20:35:08.888Z,1.05
2022-12-09T20:37:38.748Z,0.85
2022-12-09T20:40:08.976Z,0.93
2022-12-09T20:42:38.736Z,0.96
2022-12-09T20:45:11.992Z,1.08
2022-12-09T20:47:39.844Z,1.19
2022-12-09T20:50:09.649Z,1.15
2022-12-09T20:52:42.633Z,1.20
2022-12-09T20:55:13.212Z,1.20
2022-12-09T20:57:41.511Z,1.13
2022-12-09T21:00:10.644Z,1.11
2022-12-09T21:02:40.366Z,1.13
2022-12-09T21:05:09.717Z,1.09
2022-12-09T21:07:38.038Z,1.03
2022-12-09T21:10:06.694Z,1.07
2022-12-09T21:12:35.997Z,1.02
2022-12-09T21:15:04.246Z,1.00
2022-12-09T21:17:34.102Z,0.98
2022-12-09T21:20:06.154Z,1.01
2022-12-09T21:22:36.385Z,0.87
2022-12-09T21:25:06.680Z,0.95
2022-12-09T21:27:34.776Z,0.90
2022-12-09T21:30:02.817Z,0.87
2022-12-09T21:32:32.026Z,0.81
2022-12-09T21:35:02.930Z,0.92
2022-12-09T21:37:30.857Z,0.92
2022-12-09T21:39:58.775Z,0.91
2022-12-09T21:42:26.303Z,0.99
2022-12-09T21:44:54.553Z,0.99
2022-12-09T21:47:28.404Z,0.98
2022-12-09T21:49:55.965Z,0.93
2022-12-09T21:52:25.543Z,0.97
2022-12-09T21:55:02.008Z,1.00
2022-12-09T21:57:29.728Z,0.92
2022-12-09T21:59:57.357Z,0.83
2022-12-09T22:02:25.927Z,0.79
2022-12-09T22:04:59.445Z,0.86
2022-12-09T22:07:26.896Z,0.87
2022-12-09T22:09:54.480Z,0.84
2022-12-09T22:12:21.851Z,0.83
2022-12-09T22:14:51.337Z,0.82
2022-12-09T22:17:18.404Z,0.86
2022-12-09T22:19:45.728Z,0.87
2022-12-09T22:22:13.025Z,0.84
2022-12-09T22:24:48.446Z,0.83
2022-12-09T22:27:16.984Z,0.67
2022-12-09T22:29:44.434Z,0.79
2022-12-09T22:32:11.962Z,0.57
2022-12-09T22:34:39.475Z,0.78
2022-12-09T22:37:35.147Z,0.79
2022-12-09T22:39:57.292Z,0.80
2022-12-09T22:42:25.073Z,0.80
2022-12-09T22:44:52.276Z,0.84
2022-12-09T22:47:19.842Z,0.85
2022-12-09T22:49:48.128Z,0.77
2022-12-09T22:52:15.599Z,0.71
2022-12-09T22:54:43.135Z,0.66
2022-12-09T22:57:10.531Z,0.65
2022-12-09T22:59:42.780Z,0.73
2022-12-09T23:02:11.231Z,0.75
2022-12-09T23:04:38.386Z,0.79
2022-12-09T23:07:07.649Z,0.77
2022-12-09T23:09:34.682Z,0.76
2022-12-09T23:12:02.166Z,0.73
2022-12-09T23:14:29.131Z,0.78
2022-12-09T23:16:56.639Z,0.74
2022-12-09T23:19:23.947Z,0.74
2022-12-09T23:21:57.214Z,0.80
2022-12-09T23:24:25.101Z,0.82
2022-12-09T23:26:54.999Z,0.84
2022-12-09T23:29:22.364Z,0.78
2022-12-09T23:31:49.815Z,0.85
2022-12-09T23:34:24.322Z,0.86
2022-12-09T23:36:53.384Z,0.80
2022-12-09T23:39:20.807Z,0.79
2022-12-09T23:41:48.771Z,0.79
2022-12-09T23:44:18.597Z,0.83
2022-12-09T23:46:47.320Z,0.82
2022-12-09T23:49:15.018Z,0.81
2022-12-09T23:51:46.345Z,0.83
2022-12-09T23:54:15.009Z,0.85
2022-12-09T23:56:44.470Z,0.80
2022-12-09T23:59:14.126Z,0.80
